createdAt,value
2016-07-14T00:00:05.326Z,17.28
2016-07-14T00:01:05.334Z,17.28
2016-07-14T00:02:06.270Z,17.22
2016-07-14T00:03:05.353Z,17.19
2016-07-14T00:04:20.424Z,17.19
2016-07-14T00:05:05.363Z,17.25
2016-07-14T00:06:04.644Z,17.23
2016-07-14T00:07:05.378Z,17.26
2016-07-14T00:08:04.659Z,17.21
2016-07-14T00:09:05.407Z,17.19
2016-07-14T00:10:06.332Z,17.14
2016-07-14T00:11:05.663Z,17.21
2016-07-14T00:13:06.194Z,17.16
2016-07-14T00:14:05.422Z,17.18
2016-07-14T00:15:05.430Z,17.15
2016-07-14T00:16:06.153Z,17.08
2016-07-14T00:17:05.421Z,17.04
2016-07-14T00:18:04.734Z,17.12
2016-07-14T00:19:06.400Z,17.07
2016-07-14T00:20:05.469Z,17.06
2016-07-14T00:21:05.881Z,16.98
2016-07-14T00:22:05.476Z,17.08
2016-07-14T00:23:05.485Z,16.96
2016-07-14T00:24:05.694Z,16.96
2016-07-14T00:25:04.778Z,17.03
2016-07-14T00:26:05.028Z,16.94
2016-07-14T00:27:04.795Z,16.94
2016-07-14T00:28:04.797Z,16.94
2016-07-14T00:29:05.013Z,16.98
2016-07-14T00:30:05.544Z,16.94
2016-07-14T00:31:04.818Z,16.96
2016-07-14T00:32:04.832Z,17
2016-07-14T00:33:05.742Z,16.97
2016-07-14T00:34:06.274Z,16.94
2016-07-14T00:35:04.857Z,16.93
2016-07-14T00:36:06.296Z,16.91
2016-07-14T00:37:06.296Z,16.91
2016-07-14T00:38:20.450Z,16.78
2016-07-14T00:39:06.322Z,16.85
2016-07-14T00:40:05.813Z,16.76
2016-07-14T00:41:05.129Z,16.81
2016-07-14T00:42:04.902Z,16.78
2016-07-14T00:43:06.342Z,16.75
2016-07-14T00:44:05.626Z,16.75
2016-07-14T00:45:20.496Z,16.78
2016-07-14T00:46:06.368Z,16.73
2016-07-14T00:47:06.371Z,16.75
2016-07-14T00:48:05.863Z,16.64
2016-07-14T00:49:05.656Z,16.71
2016-07-14T00:50:04.956Z,16.75
2016-07-14T00:51:04.937Z,16.66
2016-07-14T00:52:05.689Z,16.75
2016-07-14T00:53:06.417Z,16.58
2016-07-14T00:54:04.985Z,16.63
2016-07-14T00:55:20.042Z,16.61
2016-07-14T00:56:05.382Z,16.6
2016-07-14T00:57:05.188Z,16.61
2016-07-14T00:58:05.268Z,16.63
2016-07-14T00:59:04.992Z,16.52
2016-07-14T01:00:04.999Z,16.52
2016-07-14T01:01:05.007Z,16.49
2016-07-14T01:02:05.011Z,16.46
2016-07-14T01:03:05.018Z,16.48
2016-07-14T01:04:05.029Z,16.56
2016-07-14T01:06:05.237Z,16.43
2016-07-14T01:07:05.041Z,16.42
2016-07-14T01:08:05.283Z,16.45
2016-07-14T01:09:05.055Z,16.39
2016-07-14T01:10:05.061Z,16.39
2016-07-14T01:11:05.067Z,16.35
2016-07-14T01:12:05.079Z,16.39
2016-07-14T01:13:05.283Z,16.38
2016-07-14T01:14:05.797Z,16.35
2016-07-14T01:15:05.123Z,16.31
2016-07-14T01:16:05.843Z,16.27
2016-07-14T01:17:05.104Z,16.28
2016-07-14T01:18:05.818Z,16.27
2016-07-14T01:19:05.866Z,16.3
2016-07-14T01:20:06.042Z,16.33
2016-07-14T01:21:05.880Z,16.14
2016-07-14T01:22:06.253Z,16.15
2016-07-14T01:23:05.872Z,16.21
2016-07-14T01:24:05.143Z,16.2
2016-07-14T01:25:05.868Z,16.2
2016-07-14T01:26:05.872Z,16.02
2016-07-14T01:27:05.920Z,16.11
2016-07-14T01:28:05.906Z,16.05
2016-07-14T01:29:05.918Z,16.05
2016-07-14T01:30:05.889Z,16.01
2016-07-14T01:31:05.903Z,16.04
2016-07-14T01:32:05.191Z,16.04
2016-07-14T01:33:05.606Z,15.97
2016-07-14T01:34:05.917Z,16.04
2016-07-14T01:35:20.072Z,16
2016-07-14T01:36:05.924Z,16.04
2016-07-14T01:37:05.220Z,16.02
2016-07-14T01:38:05.948Z,15.87
2016-07-14T01:39:05.956Z,15.97
2016-07-14T01:40:05.444Z,16.04
2016-07-14T01:41:05.298Z,15.96
2016-07-14T01:42:06.163Z,15.97
2016-07-14T01:43:06.698Z,16
2016-07-14T01:44:05.266Z,16.07
2016-07-14T01:45:06.707Z,16.04
2016-07-14T01:46:06.938Z,15.92
2016-07-14T01:47:05.279Z,16.02
2016-07-14T01:48:05.284Z,15.96
2016-07-14T01:49:06.741Z,16.04
2016-07-14T01:50:06.031Z,16.02
2016-07-14T01:51:06.037Z,15.97
2016-07-14T01:52:21.086Z,16.04
2016-07-14T01:53:06.053Z,15.9
2016-07-14T01:54:06.055Z,15.94
2016-07-14T01:55:06.088Z,15.93
2016-07-14T01:56:05.331Z,15.92
2016-07-14T01:57:05.368Z,15.94
2016-07-14T01:58:06.299Z,15.9
2016-07-14T01:59:20.957Z,16.02
2016-07-14T02:00:07.035Z,15.93
2016-07-14T02:01:05.591Z,15.9
2016-07-14T02:03:05.380Z,15.96
2016-07-14T02:04:05.610Z,15.94
2016-07-14T02:05:05.383Z,15.9
2016-07-14T02:06:05.625Z,15.94
2016-07-14T02:08:05.419Z,15.93
2016-07-14T02:09:05.410Z,15.9
2016-07-14T02:10:05.826Z,15.9
2016-07-14T02:11:05.453Z,15.93
2016-07-14T02:12:06.182Z,15.97
2016-07-14T02:13:05.432Z,16
2016-07-14T02:14:05.440Z,15.96
2016-07-14T02:15:06.150Z,15.97
2016-07-14T02:16:05.470Z,15.97
2016-07-14T02:17:05.666Z,15.96
2016-07-14T02:18:06.191Z,15.97
2016-07-14T02:19:07.121Z,16
2016-07-14T02:20:05.477Z,15.96
2016-07-14T02:21:05.476Z,16.02
2016-07-14T02:22:06.218Z,15.9
2016-07-14T02:23:06.231Z,15.9
2016-07-14T02:24:05.504Z,15.9
2016-07-14T02:25:06.227Z,16.02
2016-07-14T02:26:06.236Z,15.97
2016-07-14T02:27:05.720Z,16
2016-07-14T02:28:05.769Z,16
2016-07-14T02:29:05.538Z,15.94
2016-07-14T02:30:06.258Z,16
2016-07-14T02:31:05.551Z,15.83
2016-07-14T02:32:06.482Z,15.96
2016-07-14T02:33:20.415Z,15.96
2016-07-14T02:34:20.436Z,15.96
2016-07-14T02:35:06.302Z,15.96
2016-07-14T02:36:06.289Z,16
2016-07-14T02:37:05.578Z,15.94
2016-07-14T02:38:05.604Z,15.89
2016-07-14T02:39:05.820Z,15.92
2016-07-14T02:40:05.597Z,15.9
2016-07-14T02:41:05.606Z,15.93
2016-07-14T02:42:05.612Z,15.93
2016-07-14T02:43:05.663Z,15.93
2016-07-14T02:44:06.342Z,15.92
2016-07-14T02:45:05.637Z,15.92
2016-07-14T02:46:05.637Z,15.92
2016-07-14T02:47:05.644Z,15.93
2016-07-14T02:48:06.375Z,16
2016-07-14T02:49:21.243Z,15.96
2016-07-14T02:50:06.384Z,15.9
2016-07-14T02:51:05.872Z,15.92
2016-07-14T02:52:06.406Z,15.87
2016-07-14T02:53:06.607Z,15.93
2016-07-14T02:54:06.410Z,15.94
2016-07-14T02:55:05.886Z,15.94
2016-07-14T02:56:06.431Z,15.94
2016-07-14T02:57:06.438Z,15.86
2016-07-14T02:58:06.446Z,15.92
2016-07-14T02:59:06.448Z,15.86
2016-07-14T03:00:06.451Z,15.92
2016-07-14T03:01:05.739Z,15.9
2016-07-14T03:02:07.191Z,15.92
2016-07-14T03:03:05.760Z,15.89
2016-07-14T03:04:05.971Z,15.89
2016-07-14T03:05:07.230Z,15.89
2016-07-14T03:06:06.503Z,15.89
2016-07-14T03:07:05.767Z,15.89
2016-07-14T03:08:06.890Z,15.92
2016-07-14T03:09:05.773Z,15.89
2016-07-14T03:10:05.785Z,15.89
2016-07-14T03:11:06.511Z,15.93
2016-07-14T03:12:05.795Z,15.92
2016-07-14T03:13:05.802Z,15.92
2016-07-14T03:14:06.527Z,15.89
2016-07-14T03:15:06.016Z,15.92
2016-07-14T03:16:05.827Z,15.89
2016-07-14T03:17:05.831Z,15.94
2016-07-14T03:18:05.835Z,15.84
2016-07-14T03:19:06.125Z,15.96
2016-07-14T03:20:05.845Z,15.93
2016-07-14T03:21:05.852Z,15.94
2016-07-14T03:22:05.866Z,15.84
2016-07-14T03:23:05.862Z,15.92
2016-07-14T03:24:07.332Z,15.83
2016-07-14T03:25:05.878Z,15.83
2016-07-14T03:26:06.805Z,15.87
2016-07-14T03:27:06.622Z,15.89
2016-07-14T03:28:06.621Z,15.86
2016-07-14T03:29:06.611Z,15.92
2016-07-14T03:30:06.615Z,15.89
2016-07-14T03:31:07.575Z,15.92
2016-07-14T03:32:06.842Z,15.89
2016-07-14T03:33:06.875Z,15.92
2016-07-14T03:34:06.170Z,15.89
2016-07-14T03:35:06.675Z,15.9
2016-07-14T03:36:06.707Z,15.82
2016-07-14T03:37:06.696Z,15.89
2016-07-14T03:38:06.928Z,15.78
2016-07-14T03:39:06.679Z,15.87
2016-07-14T03:40:05.958Z,15.84
2016-07-14T03:41:07.095Z,15.89
2016-07-14T03:42:20.843Z,15.92
2016-07-14T03:43:20.841Z,15.9
2016-07-14T03:44:06.712Z,15.93
2016-07-14T03:45:06.924Z,15.93
2016-07-14T03:46:06.004Z,15.92
2016-07-14T03:47:06.010Z,15.89
2016-07-14T03:48:06.732Z,15.93
2016-07-14T03:49:06.022Z,15.89
2016-07-14T03:50:06.750Z,15.93
2016-07-14T03:51:06.241Z,15.9
2016-07-14T03:52:06.041Z,15.89
2016-07-14T03:53:06.782Z,15.87
2016-07-14T03:54:06.054Z,15.87
2016-07-14T03:55:06.779Z,15.84
2016-07-14T03:56:20.929Z,15.87
2016-07-14T03:57:06.797Z,15.8
2016-07-14T03:58:07.522Z,15.87
2016-07-14T03:59:07.517Z,15.87
2016-07-14T04:00:06.077Z,15.92
2016-07-14T04:01:07.029Z,15.89
2016-07-14T04:02:06.824Z,15.84
2016-07-14T04:03:06.102Z,15.89
2016-07-14T04:04:06.838Z,15.87
2016-07-14T04:05:06.109Z,15.94
2016-07-14T04:06:06.864Z,15.92
2016-07-14T04:07:06.139Z,15.87
2016-07-14T04:08:06.131Z,15.92
2016-07-14T04:11:06.150Z,15.89
2016-07-14T04:12:06.182Z,15.84
2016-07-14T04:13:06.179Z,15.8
2016-07-14T04:14:06.918Z,15.78
2016-07-14T04:16:06.183Z,15.71
2016-07-14T04:17:06.182Z,15.78
2016-07-14T04:18:06.185Z,15.82
2016-07-14T04:19:06.195Z,15.75
2016-07-14T04:20:06.203Z,15.71
2016-07-14T04:21:06.225Z,15.78
2016-07-14T04:22:06.228Z,15.76
2016-07-14T04:23:06.252Z,15.75
2016-07-14T04:24:06.630Z,15.74
2016-07-14T04:25:06.437Z,15.74
2016-07-14T04:26:07.154Z,15.74
2016-07-14T04:27:06.963Z,15.69
2016-07-14T04:28:06.985Z,15.72
2016-07-14T04:29:06.960Z,15.71
2016-07-14T04:30:07.013Z,15.75
2016-07-14T04:31:07.019Z,15.71
2016-07-14T04:32:06.307Z,15.69
2016-07-14T04:33:06.286Z,15.68
2016-07-14T04:34:06.287Z,15.6
2016-07-14T04:35:06.292Z,15.62
2016-07-14T04:36:06.295Z,15.65
2016-07-14T04:37:07.011Z,15.65
2016-07-14T04:38:07.045Z,15.64
2016-07-14T04:39:07.039Z,15.59
2016-07-14T04:40:07.036Z,15.59
2016-07-14T04:41:06.328Z,15.64
2016-07-14T04:42:07.049Z,15.62
2016-07-14T04:43:21.401Z,15.57
2016-07-14T04:44:06.594Z,15.64
2016-07-14T04:45:06.347Z,15.53
2016-07-14T04:46:06.352Z,15.59
2016-07-14T04:47:06.367Z,15.68
2016-07-14T04:48:07.816Z,15.64
2016-07-14T04:49:06.380Z,15.56
2016-07-14T04:50:07.102Z,15.54
2016-07-14T04:51:07.107Z,15.64
2016-07-14T04:52:06.393Z,15.6
2016-07-14T04:53:06.587Z,15.57
2016-07-14T04:54:07.128Z,15.53
2016-07-14T04:55:06.402Z,15.6
2016-07-14T04:56:06.429Z,15.54
2016-07-14T04:57:07.413Z,15.6
2016-07-14T04:58:07.561Z,15.57
2016-07-14T04:59:06.449Z,15.56
2016-07-14T05:00:06.425Z,15.54
2016-07-14T05:01:21.312Z,15.54
2016-07-14T05:02:06.954Z,15.56
2016-07-14T05:03:06.449Z,15.53
2016-07-14T05:04:06.656Z,15.53
2016-07-14T05:05:06.481Z,15.5
2016-07-14T05:06:06.665Z,15.44
2016-07-14T05:07:06.868Z,15.47
2016-07-14T05:08:06.502Z,15.5
2016-07-14T05:09:07.188Z,15.49
2016-07-14T05:10:07.404Z,15.44
2016-07-14T05:11:07.044Z,15.47
2016-07-14T05:12:07.204Z,15.43
2016-07-14T05:13:06.520Z,15.44
2016-07-14T05:14:07.234Z,15.46
2016-07-14T05:15:07.229Z,15.46
2016-07-14T05:16:06.508Z,15.47
2016-07-14T05:17:07.264Z,15.44
2016-07-14T05:18:07.464Z,15.43
2016-07-14T05:19:07.268Z,15.46
2016-07-14T05:20:07.259Z,15.46
2016-07-14T05:21:07.996Z,15.44
2016-07-14T05:22:07.987Z,15.46
2016-07-14T05:23:07.280Z,15.46
2016-07-14T05:24:06.769Z,15.38
2016-07-14T05:25:07.676Z,15.43
2016-07-14T05:26:08.434Z,15.43
2016-07-14T05:27:08.028Z,15.44
2016-07-14T05:28:07.303Z,15.39
2016-07-14T05:29:07.310Z,15.44
2016-07-14T05:30:07.331Z,15.35
2016-07-14T05:31:07.325Z,15.39
2016-07-14T05:32:06.682Z,15.44
2016-07-14T05:33:08.080Z,15.36
2016-07-14T05:34:08.079Z,15.29
2016-07-14T05:35:07.560Z,15.41
2016-07-14T05:36:06.618Z,15.28
2016-07-14T05:37:06.622Z,15.38
2016-07-14T05:38:07.386Z,15.32
2016-07-14T05:39:06.838Z,15.34
2016-07-14T05:41:07.710Z,15.38
2016-07-14T05:42:06.862Z,15.39
2016-07-14T05:43:07.568Z,15.32
2016-07-14T05:44:07.581Z,15.32
2016-07-14T05:45:06.867Z,15.28
2016-07-14T05:46:07.383Z,15.31
2016-07-14T05:47:07.399Z,15.29
2016-07-14T05:48:06.684Z,15.34
2016-07-14T05:49:07.673Z,15.35
2016-07-14T05:50:06.696Z,15.29
2016-07-14T05:51:06.704Z,15.43
2016-07-14T05:52:06.710Z,15.34
2016-07-14T05:53:06.708Z,15.31
2016-07-14T05:54:06.716Z,15.39
2016-07-14T05:55:06.727Z,15.29
2016-07-14T05:56:06.745Z,15.29
2016-07-14T05:57:06.736Z,15.35
2016-07-14T05:58:06.738Z,15.28
2016-07-14T05:59:06.755Z,15.39
2016-07-14T06:00:07.879Z,15.39
2016-07-14T06:01:07.713Z,15.39
2016-07-14T06:02:07.482Z,15.43
2016-07-14T06:03:07.498Z,15.41
2016-07-14T06:04:07.555Z,15.29
2016-07-14T06:05:06.782Z,15.32
2016-07-14T06:06:07.513Z,15.39
2016-07-14T06:07:07.528Z,15.39
2016-07-14T06:08:06.995Z,15.38
2016-07-14T06:09:06.799Z,15.36
2016-07-14T06:10:07.768Z,15.27
2016-07-14T06:11:07.814Z,15.29
2016-07-14T06:12:22.616Z,15.34
2016-07-14T06:13:07.018Z,15.25
2016-07-14T06:14:07.028Z,15.35
2016-07-14T06:15:06.840Z,15.31
2016-07-14T06:16:07.766Z,15.32
2016-07-14T06:17:07.100Z,15.29
2016-07-14T06:18:06.872Z,15.28
2016-07-14T06:19:08.511Z,15.29
2016-07-14T06:20:07.577Z,15.29
2016-07-14T06:21:07.574Z,15.32
2016-07-14T06:22:07.784Z,15.34
2016-07-14T06:23:06.871Z,15.27
2016-07-14T06:24:07.116Z,15.25
2016-07-14T06:25:07.090Z,15.2
2016-07-14T06:26:07.624Z,15.25
2016-07-14T06:27:06.892Z,15.27
2016-07-14T06:28:07.832Z,15.34
2016-07-14T06:29:06.902Z,15.31
2016-07-14T06:30:06.919Z,15.34
2016-07-14T06:31:06.914Z,15.34
2016-07-14T06:32:06.923Z,15.34
2016-07-14T06:33:06.935Z,15.31
2016-07-14T06:34:07.654Z,15.29
2016-07-14T06:35:08.618Z,15.19
2016-07-14T06:36:07.667Z,15.19
2016-07-14T06:37:07.159Z,15.19
2016-07-14T06:38:08.396Z,15.19
2016-07-14T06:39:07.694Z,15.2
2016-07-14T06:40:06.964Z,15.11
2016-07-14T06:41:07.994Z,15.23
2016-07-14T06:42:07.394Z,15.2
2016-07-14T06:43:07.174Z,15.16
2016-07-14T06:44:07.194Z,15.17
2016-07-14T06:46:06.992Z,15.17
2016-07-14T06:47:06.998Z,15.17
2016-07-14T06:48:23.233Z,15.17
2016-07-14T06:49:07.239Z,15.16
2016-07-14T06:50:07.718Z,15.11
2016-07-14T06:51:07.730Z,15.11
2016-07-14T06:52:07.015Z,15.13
2016-07-14T06:53:07.743Z,15.13
2016-07-14T06:54:07.032Z,15.14
2016-07-14T06:55:07.757Z,15.16
2016-07-14T06:56:07.783Z,15.13
2016-07-14T06:57:07.773Z,15.11
2016-07-14T06:58:07.777Z,15.09
2016-07-14T06:59:07.054Z,15.14
2016-07-14T07:00:07.792Z,15.1
2016-07-14T07:02:07.077Z,15.13
2016-07-14T07:03:07.090Z,15.14
2016-07-14T07:04:07.105Z,15.1
2016-07-14T07:05:07.821Z,15.13
2016-07-14T07:06:07.864Z,15.13
2016-07-14T07:07:07.828Z,15.07
2016-07-14T07:08:07.842Z,15.01
2016-07-14T07:09:08.582Z,14.95
2016-07-14T07:10:08.576Z,14.95
2016-07-14T07:11:07.349Z,15.02
2016-07-14T07:12:08.574Z,14.98
2016-07-14T07:13:07.872Z,15.03
2016-07-14T07:14:07.375Z,15.03
2016-07-14T07:15:07.138Z,15.06
2016-07-14T07:16:22.006Z,15.06
2016-07-14T07:17:07.348Z,15.06
2016-07-14T07:18:07.153Z,14.98
2016-07-14T07:19:07.868Z,14.95
2016-07-14T07:20:07.166Z,14.99
2016-07-14T07:21:07.894Z,14.92
2016-07-14T07:22:07.900Z,14.98
2016-07-14T07:23:08.112Z,14.96
2016-07-14T07:24:07.182Z,15.02
2016-07-14T07:25:07.926Z,15.07
2016-07-14T07:26:08.115Z,14.96
2016-07-14T07:27:22.446Z,14.98
2016-07-14T07:28:07.201Z,15.02
2016-07-14T07:29:07.928Z,15.07
2016-07-14T07:30:07.958Z,15.02
2016-07-14T07:31:07.923Z,14.98
2016-07-14T07:32:08.863Z,15.13
2016-07-14T07:33:07.937Z,15.14
2016-07-14T07:34:07.968Z,15.14
2016-07-14T07:35:07.254Z,15.17
2016-07-14T07:36:07.438Z,15.17
2016-07-14T07:37:23.055Z,15.16
2016-07-14T07:38:07.252Z,15.23
2016-07-14T07:39:07.260Z,15.17
2016-07-14T07:40:07.262Z,15.25
2016-07-14T07:41:09.200Z,15.2
2016-07-14T07:42:07.337Z,15.19
2016-07-14T07:43:07.275Z,15.17
2016-07-14T07:44:07.283Z,15.2
2016-07-14T07:45:08.253Z,15.11
2016-07-14T07:46:08.045Z,15.17
2016-07-14T07:47:07.354Z,15.1
2016-07-14T07:48:07.321Z,15.17
2016-07-14T07:49:07.343Z,15.11
2016-07-14T07:50:08.264Z,15.09
2016-07-14T07:51:07.319Z,15.17
2016-07-14T07:52:08.786Z,15.09
2016-07-14T07:53:08.088Z,15.1
2016-07-14T07:54:07.337Z,15.11
2016-07-14T07:55:07.759Z,15.16
2016-07-14T07:56:22.204Z,15.2
2016-07-14T07:57:08.089Z,15.17
2016-07-14T07:58:07.365Z,15.14
2016-07-14T07:59:07.376Z,15.11
2016-07-14T08:00:07.384Z,15.17
2016-07-14T08:01:08.293Z,15.25
2016-07-14T08:02:08.103Z,15.17
2016-07-14T08:03:07.390Z,15.16
2016-07-14T08:04:08.121Z,15.19
2016-07-14T08:05:08.117Z,15.19
2016-07-14T08:06:08.393Z,15.14
2016-07-14T08:07:07.422Z,15.21
2016-07-14T08:08:07.426Z,15.21
2016-07-14T08:09:08.307Z,15.09
2016-07-14T08:10:07.650Z,15.14
2016-07-14T08:11:09.008Z,15.16
2016-07-14T08:12:08.231Z,15.1
2016-07-14T08:13:08.150Z,15.14
2016-07-14T08:14:08.893Z,15.17
2016-07-14T08:15:07.641Z,15.07
2016-07-14T08:16:07.658Z,15.14
2016-07-14T08:17:22.315Z,15.1
2016-07-14T08:18:08.398Z,15.16
2016-07-14T08:19:07.462Z,15.14
2016-07-14T08:20:07.472Z,15.1
2016-07-14T08:21:07.483Z,15.07
2016-07-14T08:22:07.482Z,15.14
2016-07-14T08:23:07.518Z,15.11
2016-07-14T08:24:07.480Z,15.11
2016-07-14T08:25:22.351Z,15.11
2016-07-14T08:27:07.706Z,15.14
2016-07-14T08:28:07.506Z,15.17
2016-07-14T08:29:07.516Z,15.19
2016-07-14T08:30:07.552Z,15.19
2016-07-14T08:31:07.526Z,15.16
2016-07-14T08:32:08.481Z,15.23
2016-07-14T08:33:08.258Z,15.19
2016-07-14T08:34:07.537Z,15.21
2016-07-14T08:35:07.553Z,15.19
2016-07-14T08:36:07.562Z,15.16
2016-07-14T08:37:08.286Z,15.13
2016-07-14T08:38:07.787Z,15.14
2016-07-14T08:39:07.561Z,15.14
2016-07-14T08:40:08.285Z,15.21
2016-07-14T08:41:07.629Z,15.19
2016-07-14T08:42:22.451Z,15.2
2016-07-14T08:43:08.327Z,15.14
2016-07-14T08:44:07.652Z,15.17
2016-07-14T08:45:08.339Z,15.19
2016-07-14T08:46:07.604Z,15.13
2016-07-14T08:47:07.607Z,15.16
2016-07-14T08:48:07.608Z,15.16
2016-07-14T08:49:07.626Z,15.13
2016-07-14T08:50:07.627Z,15.27
2016-07-14T08:51:08.351Z,15.14
2016-07-14T08:52:07.645Z,15.14
2016-07-14T08:53:09.086Z,15.19
2016-07-14T08:54:22.903Z,15.17
2016-07-14T08:55:22.711Z,15.21
2016-07-14T08:56:07.654Z,15.23
2016-07-14T08:57:07.668Z,15.14
2016-07-14T08:59:07.668Z,15.07
2016-07-14T09:00:22.533Z,15.1
2016-07-14T09:01:07.683Z,15.16
2016-07-14T09:02:09.136Z,15.16
2016-07-14T09:03:22.552Z,15.14
2016-07-14T09:04:08.423Z,15.14
2016-07-14T09:05:08.422Z,15.07
2016-07-14T09:06:09.358Z,15.1
2016-07-14T09:07:07.718Z,15.21
2016-07-14T09:08:08.453Z,15.14
2016-07-14T09:09:07.710Z,15.14
2016-07-14T09:10:07.925Z,15.16
2016-07-14T09:11:07.728Z,15.14
2016-07-14T09:12:07.775Z,15.11
2016-07-14T09:13:07.743Z,15.13
2016-07-14T09:14:07.747Z,15.07
2016-07-14T09:15:07.751Z,15.03
2016-07-14T09:16:07.755Z,15.06
2016-07-14T09:17:07.763Z,14.96
2016-07-14T09:18:07.778Z,15.06
2016-07-14T09:19:08.479Z,15.03
2016-07-14T09:20:07.782Z,14.98
2016-07-14T09:21:08.006Z,14.99
2016-07-14T09:22:07.808Z,14.96
2016-07-14T09:23:07.993Z,14.98
2016-07-14T09:25:07.801Z,14.95
2016-07-14T09:26:07.799Z,14.96
2016-07-14T09:27:08.563Z,14.98
2016-07-14T09:28:08.580Z,14.94
2016-07-14T09:29:22.688Z,14.92
2016-07-14T09:30:07.842Z,14.99
2016-07-14T09:31:07.835Z,15.02
2016-07-14T09:32:07.855Z,14.92
2016-07-14T09:33:08.098Z,15.09
2016-07-14T09:34:08.049Z,14.96
2016-07-14T09:35:08.575Z,14.96
2016-07-14T09:36:08.991Z,15.09
2016-07-14T09:37:08.591Z,14.95
2016-07-14T09:38:08.597Z,15.01
2016-07-14T09:39:09.011Z,15.07
2016-07-14T09:40:09.327Z,15.02
2016-07-14T09:41:07.945Z,15.06
2016-07-14T09:42:07.896Z,14.99
2016-07-14T09:43:08.651Z,15.16
2016-07-14T09:44:08.101Z,15.17
2016-07-14T09:45:08.854Z,15.11
2016-07-14T09:46:07.911Z,15.11
2016-07-14T09:47:07.926Z,15.11
2016-07-14T09:48:07.923Z,15.19
2016-07-14T09:49:07.931Z,15.23
2016-07-14T09:50:07.932Z,15.14
2016-07-14T09:51:07.943Z,15.14
2016-07-14T09:52:09.090Z,15.25
2016-07-14T09:53:08.131Z,15.21
2016-07-14T09:54:08.189Z,15.14
2016-07-14T09:55:09.055Z,15.13
2016-07-14T09:56:22.950Z,15.27
2016-07-14T09:57:08.167Z,15.13
2016-07-14T09:58:08.561Z,15.23
2016-07-14T09:59:08.126Z,15.29
2016-07-14T10:00:08.217Z,15.34
2016-07-14T10:01:08.351Z,15.34
2016-07-14T10:02:22.856Z,15.29
2016-07-14T10:03:08.205Z,15.29
2016-07-14T10:04:08.549Z,15.32
2016-07-14T10:05:08.100Z,15.29
2016-07-14T10:06:09.455Z,15.28
2016-07-14T10:07:08.164Z,15.29
2016-07-14T10:08:08.314Z,15.32
2016-07-14T10:09:09.287Z,15.29
2016-07-14T10:10:09.044Z,15.36
2016-07-14T10:11:09.973Z,15.31
2016-07-14T10:12:23.130Z,15.35
2016-07-14T10:13:08.169Z,15.32
2016-07-14T10:14:08.492Z,15.34
2016-07-14T10:15:09.831Z,15.34
2016-07-14T10:16:08.266Z,15.38
2016-07-14T10:17:09.332Z,15.49
2016-07-14T10:18:09.166Z,15.46
2016-07-14T10:20:08.344Z,15.47
2016-07-14T10:21:08.536Z,15.47
2016-07-14T10:22:08.336Z,15.41
2016-07-14T10:23:09.393Z,15.44
2016-07-14T10:24:08.929Z,15.5
2016-07-14T10:25:08.262Z,15.49
2016-07-14T10:26:09.798Z,15.43
2016-07-14T10:28:09.978Z,15.49
2016-07-14T10:29:09.589Z,15.41
2016-07-14T10:30:09.511Z,15.39
2016-07-14T10:31:08.307Z,15.44
2016-07-14T10:32:09.490Z,15.46
2016-07-14T10:33:08.225Z,15.39
2016-07-14T10:34:08.895Z,15.5
2016-07-14T10:35:08.347Z,15.47
2016-07-14T10:36:09.120Z,15.39
2016-07-14T10:37:08.350Z,15.53
2016-07-14T10:38:08.397Z,15.54
2016-07-14T10:39:09.444Z,15.56
2016-07-14T10:40:08.466Z,15.54
2016-07-14T10:41:08.410Z,15.54
2016-07-14T10:42:08.429Z,15.51
2016-07-14T10:43:08.620Z,15.53
2016-07-14T10:44:08.733Z,15.62
2016-07-14T10:45:08.375Z,15.59
2016-07-14T10:46:08.488Z,15.59
2016-07-14T10:47:08.944Z,15.62
2016-07-14T10:48:08.677Z,15.62
2016-07-14T10:49:08.856Z,15.62
2016-07-14T10:50:09.109Z,15.67
2016-07-14T10:51:08.910Z,15.65
2016-07-14T10:52:09.934Z,15.64
2016-07-14T10:53:08.377Z,15.65
2016-07-14T10:54:08.547Z,15.65
2016-07-14T10:55:23.233Z,15.68
2016-07-14T10:56:08.491Z,15.59
2016-07-14T10:57:08.415Z,15.56
2016-07-14T10:58:08.428Z,15.62
2016-07-14T10:59:08.546Z,15.56
2016-07-14T11:00:09.477Z,15.65
2016-07-14T11:01:09.433Z,15.65
2016-07-14T11:02:10.212Z,15.65
2016-07-14T11:03:10.050Z,15.65
2016-07-14T11:05:09.188Z,15.69
2016-07-14T11:06:10.952Z,15.74
2016-07-14T11:07:08.597Z,15.68
2016-07-14T11:08:09.668Z,15.76
2016-07-14T11:09:09.616Z,15.75
2016-07-14T11:10:08.947Z,15.71
2016-07-14T11:11:08.606Z,15.72
2016-07-14T11:12:09.570Z,15.74
2016-07-14T11:13:09.598Z,15.68
2016-07-14T11:14:23.654Z,15.72
2016-07-14T11:15:09.538Z,15.72
2016-07-14T11:16:08.554Z,15.72
2016-07-14T11:17:10.397Z,15.71
2016-07-14T11:18:09.458Z,15.76
2016-07-14T11:19:23.662Z,15.78
2016-07-14T11:20:09.767Z,15.78
2016-07-14T11:21:08.517Z,15.86
2016-07-14T11:22:08.599Z,15.84
2016-07-14T11:23:09.538Z,15.84
2016-07-14T11:24:09.683Z,15.89
2016-07-14T11:25:08.585Z,15.84
2016-07-14T11:26:09.472Z,15.84
2016-07-14T11:27:09.594Z,15.78
2016-07-14T11:28:08.952Z,15.82
2016-07-14T11:29:08.857Z,15.78
2016-07-14T11:30:09.482Z,15.71
2016-07-14T11:31:09.812Z,15.74
2016-07-14T11:32:08.871Z,15.69
2016-07-14T11:34:08.730Z,15.71
2016-07-14T11:35:09.637Z,15.72
2016-07-14T11:36:10.764Z,15.74
2016-07-14T11:37:08.745Z,15.69
2016-07-14T11:39:09.970Z,15.69
2016-07-14T11:40:08.779Z,15.62
2016-07-14T11:41:10.280Z,15.65
2016-07-14T11:42:08.725Z,15.65
2016-07-14T11:43:08.794Z,15.67
2016-07-14T11:44:08.915Z,15.67
2016-07-14T11:45:10.628Z,15.71
2016-07-14T11:46:08.915Z,15.68
2016-07-14T11:47:08.792Z,15.69
2016-07-14T11:48:08.913Z,15.71
2016-07-14T11:49:09.555Z,15.74
2016-07-14T11:50:08.894Z,15.74
2016-07-14T11:51:08.832Z,15.71
2016-07-14T11:52:09.563Z,15.72
2016-07-14T11:53:08.857Z,15.71
2016-07-14T11:54:09.034Z,15.68
2016-07-14T11:55:09.746Z,15.72
2016-07-14T11:56:09.808Z,15.75
2016-07-14T11:57:09.757Z,15.72
2016-07-14T11:58:09.889Z,15.78
2016-07-14T11:59:08.936Z,15.68
2016-07-14T12:00:08.904Z,15.68
2016-07-14T12:01:09.170Z,15.71
2016-07-14T12:02:09.037Z,15.72
2016-07-14T12:03:09.032Z,15.76
2016-07-14T12:04:10.535Z,15.71
2016-07-14T12:05:09.053Z,15.74
2016-07-14T12:06:08.928Z,15.74
2016-07-14T12:08:10.344Z,15.71
2016-07-14T12:09:08.952Z,15.69
2016-07-14T12:10:08.888Z,15.76
2016-07-14T12:11:24.465Z,15.69
2016-07-14T12:12:08.958Z,15.72
2016-07-14T12:13:24.558Z,15.72
2016-07-14T12:14:10.608Z,15.74
2016-07-14T12:15:08.943Z,15.75
2016-07-14T12:16:09.624Z,15.72
2016-07-14T12:17:08.935Z,15.71
2016-07-14T12:18:08.918Z,15.68
2016-07-14T12:19:09.008Z,15.65
2016-07-14T12:20:09.832Z,15.65
2016-07-14T12:21:23.794Z,15.65
2016-07-14T12:22:09.990Z,15.57
2016-07-14T12:23:09.042Z,15.54
2016-07-14T12:24:09.865Z,15.6
2016-07-14T12:25:10.023Z,15.68
2016-07-14T12:26:09.004Z,15.56
2016-07-14T12:27:09.806Z,15.6
2016-07-14T12:28:09.872Z,15.65
2016-07-14T12:30:09.031Z,15.68
2016-07-14T12:31:09.917Z,15.65
2016-07-14T12:32:10.058Z,15.69
2016-07-14T12:33:09.817Z,15.71
2016-07-14T12:34:09.878Z,15.75
2016-07-14T12:35:09.042Z,15.71
2016-07-14T12:36:09.896Z,15.78
2016-07-14T12:37:10.033Z,15.71
2016-07-14T12:38:09.148Z,15.76
2016-07-14T12:39:10.800Z,15.71
2016-07-14T12:40:09.209Z,15.78
2016-07-14T12:41:25.209Z,15.72
2016-07-14T12:42:10.022Z,15.72
2016-07-14T12:43:23.962Z,15.72
2016-07-14T12:45:23.898Z,15.64
2016-07-14T12:46:09.106Z,15.64
2016-07-14T12:47:09.268Z,15.57
2016-07-14T12:48:09.141Z,15.51
2016-07-14T12:50:25.051Z,15.57
2016-07-14T12:51:09.168Z,15.59
2016-07-14T12:52:23.886Z,15.47
2016-07-14T12:53:25.279Z,15.57
2016-07-14T12:54:09.199Z,15.59
2016-07-14T12:55:09.385Z,15.57
2016-07-14T12:56:09.410Z,15.51
2016-07-14T12:57:10.028Z,15.54
2016-07-14T12:58:09.247Z,15.46
2016-07-14T12:59:09.438Z,15.56
2016-07-14T13:00:10.626Z,15.59
2016-07-14T13:01:09.319Z,15.51
2016-07-14T13:02:10.141Z,15.57
2016-07-14T13:03:09.670Z,15.54
2016-07-14T13:04:10.387Z,15.59
2016-07-14T13:05:10.035Z,15.62
2016-07-14T13:06:09.100Z,15.57
2016-07-14T13:07:09.281Z,15.57
2016-07-14T13:08:24.015Z,15.56
2016-07-14T13:09:09.852Z,15.5
2016-07-14T13:10:09.899Z,15.47
2016-07-14T13:11:09.218Z,15.44
2016-07-14T13:12:09.917Z,15.38
2016-07-14T13:13:09.417Z,15.25
2016-07-14T13:14:10.354Z,15.21
2016-07-14T13:15:10.103Z,15.2
2016-07-14T13:16:10.132Z,15.19
2016-07-14T13:18:10.020Z,15.17